ANZ953 NFFN-NZQN
Flight info
| Callsign | ANZ953 |
|---|---|
| Flight time | 3h 47m |
| Altitude | 41000 |
| Route | ECHO MI A577 AGTOS A578 KALAG/N0490F430 A578 AA Y320 LAKAR Y628 DUBON Q787 MAMUS Y886 ELRUV |
| Aircraft | A359/H-SDE2E3GHIJ3J4J5LM1ORWXY/LB1D1 |
Departure
| Time | 2026-05-04 21:10 |
|---|---|
| Airport | Nadi International Airport (NFFN) |
Arrival
| Time | 2026-05-05 00:57 |
|---|---|
| Airport | Queenstown Airport (NZQN) |
| Time | Latitude | Longitude | Altitude | Speed | Heading |
|---|---|---|---|---|---|
| 2026-05-04 21:10 | -17.85243 | 177.36421 | 5333 ft | 272 kts | 217° |
| 2026-05-04 21:10 | -17.86746 | 177.35193 | 6280 ft | 274 kts | 217° |
| 2026-05-04 21:10 | -17.88264 | 177.33972 | 7181 ft | 276 kts | 215° |
| 2026-05-04 21:11 | -17.89927 | 177.32960 | 8147 ft | 277 kts | 203° |
| 2026-05-04 21:11 | -17.91756 | 177.32402 | 9133 ft | 277 kts | 191° |
| 2026-05-04 21:11 | -17.93677 | 177.32111 | 10127 ft | 279 kts | 187° |
| 2026-05-04 21:11 | -17.95669 | 177.31925 | 10707 ft | 297 kts | 186° |
| 2026-05-04 21:12 | -17.97816 | 177.31777 | 11026 ft | 321 kts | 185° |
| 2026-05-04 21:12 | -18.00117 | 177.31632 | 11449 ft | 338 kts | 185° |
| 2026-05-04 21:12 | -18.02502 | 177.31474 | 12059 ft | 348 kts | 186° |
| 2026-05-04 21:12 | -18.04943 | 177.31299 | 12826 ft | 353 kts | 186° |
| 2026-05-04 21:13 | -18.07374 | 177.31113 | 13588 ft | 357 kts | 186° |
| 2026-05-04 21:13 | -18.09868 | 177.30912 | 14267 ft | 361 kts | 187° |
| 2026-05-04 21:13 | -18.12391 | 177.30704 | 14918 ft | 366 kts | 187° |
| 2026-05-04 21:13 | -18.14944 | 177.30490 | 15592 ft | 370 kts | 187° |
| 2026-05-04 21:14 | -18.17523 | 177.30275 | 16241 ft | 373 kts | 187° |
| 2026-05-04 21:14 | -18.20127 | 177.30057 | 16905 ft | 377 kts | 187° |
| 2026-05-04 21:14 | -18.22758 | 177.29838 | 17561 ft | 381 kts | 187° |
| 2026-05-04 21:14 | -18.25420 | 177.29617 | 18222 ft | 385 kts | 187° |
| 2026-05-04 21:15 | -18.28105 | 177.29394 | 18817 ft | 388 kts | 187° |
| 2026-05-04 21:15 | -18.30798 | 177.29171 | 19491 ft | 389 kts | 188° |
| 2026-05-04 21:15 | -18.33497 | 177.28948 | 20174 ft | 390 kts | 188° |
| 2026-05-04 21:15 | -18.36211 | 177.28723 | 20851 ft | 391 kts | 188° |
| 2026-05-04 21:16 | -18.38894 | 177.28501 | 21510 ft | 393 kts | 188° |
| 2026-05-04 21:16 | -18.41635 | 177.28273 | 22202 ft | 395 kts | 188° |
| 2026-05-04 21:16 | -18.44379 | 177.28044 | 22908 ft | 395 kts | 188° |
| 2026-05-04 21:16 | -18.47138 | 177.27815 | 23576 ft | 397 kts | 189° |
| 2026-05-04 21:17 | -18.49902 | 177.27584 | 24111 ft | 400 kts | 189° |
| 2026-05-04 21:17 | -18.52655 | 177.27354 | 24631 ft | 403 kts | 189° |
| 2026-05-04 21:17 | -18.55463 | 177.27120 | 25170 ft | 406 kts | 189° |
| 2026-05-04 21:17 | -18.58297 | 177.26884 | 25727 ft | 408 kts | 189° |
| 2026-05-04 21:18 | -18.61139 | 177.26647 | 26281 ft | 411 kts | 189° |
| 2026-05-04 21:18 | -18.63963 | 177.26411 | 26816 ft | 413 kts | 189° |
| 2026-05-04 21:18 | -18.66848 | 177.26171 | 27364 ft | 416 kts | 189° |
| 2026-05-04 21:18 | -18.69743 | 177.25929 | 27908 ft | 418 kts | 189° |
| 2026-05-04 21:19 | -18.72659 | 177.25686 | 28437 ft | 421 kts | 189° |
| 2026-05-04 21:19 | -18.75599 | 177.25441 | 28951 ft | 424 kts | 189° |
| 2026-05-04 21:19 | -18.78554 | 177.25194 | 29562 ft | 425 kts | 189° |
| 2026-05-04 21:19 | -18.81472 | 177.24951 | 30085 ft | 427 kts | 189° |
| 2026-05-04 21:20 | -18.84465 | 177.24701 | 30487 ft | 430 kts | 189° |
| 2026-05-04 21:20 | -18.87460 | 177.24451 | 30884 ft | 433 kts | 189° |
| 2026-05-04 21:20 | -18.90436 | 177.24202 | 31288 ft | 435 kts | 189° |
| 2026-05-04 21:20 | -18.93460 | 177.23949 | 31687 ft | 437 kts | 189° |
| 2026-05-04 21:21 | -18.96500 | 177.23695 | 32078 ft | 439 kts | 189° |
| 2026-05-04 21:21 | -18.99561 | 177.23439 | 32455 ft | 441 kts | 189° |
| 2026-05-04 21:21 | -19.02640 | 177.23181 | 32821 ft | 443 kts | 189° |
| 2026-05-04 21:21 | -19.05730 | 177.22923 | 33169 ft | 445 kts | 189° |
| 2026-05-04 21:22 | -19.08799 | 177.22666 | 33504 ft | 447 kts | 189° |
| 2026-05-04 21:22 | -19.11913 | 177.22405 | 33924 ft | 447 kts | 189° |
| 2026-05-04 21:22 | -19.15015 | 177.22146 | 34333 ft | 446 kts | 189° |
| 2026-05-04 21:22 | -19.18100 | 177.21889 | 34716 ft | 445 kts | 189° |
| 2026-05-04 21:23 | -19.21189 | 177.21631 | 35057 ft | 444 kts | 189° |
| 2026-05-04 21:23 | -19.24276 | 177.21372 | 35413 ft | 444 kts | 189° |
| 2026-05-04 21:23 | -19.27320 | 177.21117 | 35758 ft | 443 kts | 189° |
| 2026-05-04 21:23 | -19.30402 | 177.20858 | 36102 ft | 443 kts | 189° |
| 2026-05-04 21:24 | -19.33474 | 177.20596 | 36439 ft | 442 kts | 189° |
| 2026-05-04 21:24 | -19.36532 | 177.20275 | 36762 ft | 441 kts | 191° |
| 2026-05-04 21:24 | -19.39596 | 177.19909 | 37084 ft | 441 kts | 191° |
| 2026-05-04 21:24 | -19.42613 | 177.19533 | 37416 ft | 440 kts | 191° |
| 2026-05-04 21:25 | -19.45654 | 177.19156 | 37839 ft | 437 kts | 191° |
| 2026-05-04 21:25 | -19.48669 | 177.18790 | 38285 ft | 434 kts | 191° |
| 2026-05-04 21:25 | -19.51672 | 177.18432 | 38597 ft | 434 kts | 191° |
| 2026-05-04 21:25 | -19.54687 | 177.18076 | 38825 ft | 434 kts | 191° |
| 2026-05-04 21:26 | -19.57656 | 177.17728 | 39004 ft | 435 kts | 191° |
| 2026-05-04 21:26 | -19.60672 | 177.17377 | 39193 ft | 436 kts | 191° |
| 2026-05-04 21:26 | -19.63692 | 177.17025 | 39368 ft | 437 kts | 191° |
| 2026-05-04 21:26 | -19.66723 | 177.16673 | 39555 ft | 437 kts | 191° |
| 2026-05-04 21:27 | -19.69756 | 177.16321 | 39740 ft | 438 kts | 191° |
| 2026-05-04 21:27 | -19.72756 | 177.15972 | 39914 ft | 438 kts | 191° |
| 2026-05-04 21:27 | -19.75791 | 177.15618 | 40089 ft | 439 kts | 191° |
| 2026-05-04 21:27 | -19.78829 | 177.15264 | 40313 ft | 439 kts | 191° |
| 2026-05-04 21:28 | -19.81862 | 177.14911 | 40560 ft | 437 kts | 191° |
| 2026-05-04 21:28 | -19.84868 | 177.14561 | 40721 ft | 438 kts | 191° |
| 2026-05-04 21:28 | -19.87907 | 177.14206 | 40866 ft | 438 kts | 191° |
| 2026-05-04 21:28 | -19.90939 | 177.13852 | 40984 ft | 440 kts | 192° |
| 2026-05-04 21:29 | -19.97029 | 177.13140 | 40997 ft | 439 kts | 192° |
| 2026-05-04 21:29 | -20.03113 | 177.12429 | 41001 ft | 439 kts | 192° |
| 2026-05-04 21:30 | -20.09169 | 177.11721 | 41003 ft | 439 kts | 192° |
| 2026-05-04 21:30 | -20.15255 | 177.11009 | 41009 ft | 438 kts | 191° |
| 2026-05-04 21:31 | -20.24331 | 177.09946 | 41012 ft | 438 kts | 191° |
| 2026-05-04 21:32 | -20.30358 | 177.09237 | 41014 ft | 438 kts | 191° |
| 2026-05-04 21:32 | -20.36436 | 177.08516 | 41013 ft | 438 kts | 191° |
| 2026-05-04 21:33 | -20.42470 | 177.07801 | 41014 ft | 438 kts | 191° |
| 2026-05-04 21:33 | -20.48546 | 177.07081 | 41015 ft | 437 kts | 191° |
| 2026-05-04 21:34 | -20.54571 | 177.06368 | 41014 ft | 437 kts | 191° |
| 2026-05-04 21:34 | -20.60625 | 177.05650 | 41015 ft | 437 kts | 191° |
| 2026-05-04 21:35 | -20.66657 | 177.04934 | 41013 ft | 437 kts | 191° |
| 2026-05-04 21:35 | -20.72687 | 177.04218 | 41021 ft | 437 kts | 191° |
| 2026-05-04 21:36 | -20.78745 | 177.03498 | 41040 ft | 437 kts | 191° |
| 2026-05-04 21:36 | -20.84795 | 177.02778 | 41024 ft | 437 kts | 191° |
| 2026-05-04 21:37 | -20.90842 | 177.02058 | 41022 ft | 437 kts | 191° |
| 2026-05-04 21:37 | -20.96856 | 177.01342 | 41024 ft | 437 kts | 191° |
| 2026-05-04 21:38 | -21.02917 | 177.00619 | 41028 ft | 437 kts | 191° |
| 2026-05-04 21:38 | -21.08932 | 176.99901 | 41026 ft | 437 kts | 191° |
| 2026-05-04 21:39 | -21.14983 | 176.99178 | 41027 ft | 437 kts | 191° |
| 2026-05-04 21:39 | -21.21050 | 176.98453 | 41026 ft | 437 kts | 191° |
| 2026-05-04 21:40 | -21.27076 | 176.97733 | 41029 ft | 437 kts | 191° |
| 2026-05-04 21:40 | -21.33136 | 176.97007 | 41029 ft | 437 kts | 191° |
| 2026-05-04 21:41 | -21.39153 | 176.96286 | 41034 ft | 437 kts | 191° |
| 2026-05-04 21:41 | -21.45213 | 176.95559 | 41034 ft | 437 kts | 191° |
| 2026-05-04 21:42 | -21.51284 | 176.94831 | 41037 ft | 437 kts | 191° |
| 2026-05-04 21:42 | -21.57302 | 176.94120 | 41038 ft | 436 kts | 191° |
| 2026-05-04 21:43 | -21.63332 | 176.93392 | 41036 ft | 435 kts | 191° |
| 2026-05-04 21:43 | -21.69352 | 176.92661 | 41037 ft | 435 kts | 191° |
| 2026-05-04 21:44 | -21.75343 | 176.91937 | 41037 ft | 435 kts | 191° |
| 2026-05-04 21:44 | -21.81376 | 176.91209 | 41043 ft | 435 kts | 191° |
| 2026-05-04 21:45 | -21.87366 | 176.90487 | 41042 ft | 435 kts | 191° |
| 2026-05-04 21:45 | -21.93385 | 176.89761 | 41048 ft | 435 kts | 191° |
| 2026-05-04 21:46 | -21.99411 | 176.89032 | 41048 ft | 435 kts | 191° |
| 2026-05-04 21:46 | -22.05395 | 176.88309 | 41050 ft | 435 kts | 191° |
| 2026-05-04 21:47 | -22.11416 | 176.87580 | 41068 ft | 435 kts | 191° |
| 2026-05-04 21:47 | -22.17430 | 176.86851 | 41055 ft | 434 kts | 191° |
| 2026-05-04 21:48 | -22.23435 | 176.86123 | 41055 ft | 434 kts | 191° |
| 2026-05-04 21:48 | -22.29407 | 176.85398 | 41056 ft | 434 kts | 191° |
| 2026-05-04 21:49 | -22.35431 | 176.84667 | 41062 ft | 434 kts | 191° |
| 2026-05-04 21:49 | -22.41400 | 176.83941 | 41062 ft | 434 kts | 191° |
| 2026-05-04 21:50 | -22.47400 | 176.83211 | 41071 ft | 434 kts | 191° |
| 2026-05-04 21:50 | -22.53410 | 176.82479 | 41063 ft | 434 kts | 191° |
| 2026-05-04 21:51 | -22.59418 | 176.81747 | 41073 ft | 433 kts | 191° |
| 2026-05-04 21:51 | -22.65381 | 176.81019 | 41069 ft | 433 kts | 191° |
| 2026-05-04 21:52 | -22.71376 | 176.80287 | 41069 ft | 433 kts | 191° |
| 2026-05-04 21:52 | -22.77379 | 176.79554 | 41072 ft | 433 kts | 191° |
| 2026-05-04 21:53 | -22.83381 | 176.78819 | 41078 ft | 434 kts | 191° |
| 2026-05-04 21:53 | -22.89349 | 176.78089 | 41078 ft | 434 kts | 191° |
| 2026-05-04 21:54 | -22.95356 | 176.77353 | 41083 ft | 434 kts | 191° |
| 2026-05-04 21:54 | -23.01372 | 176.76615 | 41083 ft | 434 kts | 191° |
| 2026-05-04 21:55 | -23.07336 | 176.75883 | 41108 ft | 434 kts | 191° |
| 2026-05-04 21:55 | -23.13365 | 176.75141 | 41089 ft | 436 kts | 191° |
| 2026-05-04 21:56 | -23.19407 | 176.74398 | 41088 ft | 437 kts | 191° |
| 2026-05-04 21:56 | -23.25452 | 176.73655 | 41094 ft | 437 kts | 191° |
| 2026-05-04 21:57 | -23.31461 | 176.72915 | 41094 ft | 437 kts | 191° |
| 2026-05-04 21:57 | -23.37513 | 176.72168 | 41097 ft | 437 kts | 191° |
| 2026-05-04 21:58 | -23.43566 | 176.71421 | 41101 ft | 439 kts | 191° |
| 2026-05-04 21:58 | -23.48628 | 176.70795 | 41102 ft | 440 kts | 191° |
| 2026-05-04 21:59 | -23.54713 | 176.70043 | 41102 ft | 440 kts | 191° |
| 2026-05-04 21:59 | -23.60781 | 176.69293 | 41102 ft | 440 kts | 191° |
| 2026-05-04 22:00 | -23.66881 | 176.68538 | 41101 ft | 440 kts | 191° |
| 2026-05-04 22:00 | -23.72980 | 176.67781 | 41123 ft | 440 kts | 191° |
| 2026-05-04 22:01 | -23.79091 | 176.67022 | 41111 ft | 442 kts | 191° |
| 2026-05-04 22:01 | -23.85181 | 176.66266 | 41115 ft | 442 kts | 191° |
| 2026-05-04 22:02 | -23.91321 | 176.65503 | 41115 ft | 442 kts | 191° |
| 2026-05-04 22:02 | -23.97395 | 176.64747 | 41118 ft | 442 kts | 191° |
| 2026-05-04 22:03 | -24.03532 | 176.63983 | 41144 ft | 442 kts | 191° |
| 2026-05-04 22:03 | -24.09680 | 176.63215 | 41124 ft | 445 kts | 191° |
| 2026-05-04 22:04 | -24.15812 | 176.62449 | 41123 ft | 446 kts | 191° |
| 2026-05-04 22:04 | -24.21983 | 176.61679 | 41124 ft | 446 kts | 191° |
| 2026-05-04 22:05 | -24.28162 | 176.60907 | 41129 ft | 446 kts | 191° |
| 2026-05-04 22:05 | -24.34295 | 176.60139 | 41126 ft | 446 kts | 191° |
| 2026-05-04 22:06 | -24.40480 | 176.59363 | 41136 ft | 448 kts | 191° |
| 2026-05-04 22:06 | -24.46689 | 176.58584 | 41134 ft | 448 kts | 190° |
| 2026-05-04 22:07 | -24.52894 | 176.57806 | 41139 ft | 449 kts | 190° |
| 2026-05-04 22:07 | -24.59070 | 176.57030 | 41139 ft | 448 kts | 191° |
| 2026-05-04 22:08 | -24.65281 | 176.56249 | 41140 ft | 449 kts | 191° |
| 2026-05-04 22:08 | -24.71494 | 176.55467 | 41137 ft | 448 kts | 191° |
| 2026-05-04 22:09 | -24.77697 | 176.54685 | 41143 ft | 448 kts | 191° |
| 2026-05-04 22:09 | -24.83880 | 176.53905 | 41143 ft | 448 kts | 191° |
| 2026-05-04 22:10 | -24.90085 | 176.53121 | 41148 ft | 448 kts | 191° |
| 2026-05-04 22:10 | -24.96289 | 176.52337 | 41145 ft | 448 kts | 191° |
| 2026-05-04 22:11 | -25.02460 | 176.51559 | 41152 ft | 450 kts | 190° |
| 2026-05-04 22:11 | -25.08693 | 176.50770 | 41149 ft | 451 kts | 190° |
| 2026-05-04 22:12 | -25.14934 | 176.49977 | 41151 ft | 451 kts | 190° |
| 2026-05-04 22:12 | -25.21174 | 176.49185 | 41151 ft | 451 kts | 190° |
| 2026-05-04 22:13 | -25.27407 | 176.48394 | 41154 ft | 451 kts | 190° |
| 2026-05-04 22:13 | -25.33618 | 176.47604 | 41155 ft | 452 kts | 190° |
| 2026-05-04 22:14 | -25.39901 | 176.46804 | 41164 ft | 454 kts | 190° |
| 2026-05-04 22:14 | -25.46185 | 176.46004 | 41163 ft | 454 kts | 190° |
| 2026-05-04 22:15 | -25.52431 | 176.45208 | 41168 ft | 454 kts | 190° |
| 2026-05-04 22:15 | -25.58712 | 176.44407 | 41168 ft | 454 kts | 190° |
| 2026-05-04 22:16 | -25.65011 | 176.43602 | 41171 ft | 456 kts | 190° |
| 2026-05-04 22:16 | -25.71294 | 176.42798 | 41170 ft | 457 kts | 190° |
| 2026-05-04 22:17 | -25.77629 | 176.41987 | 41178 ft | 457 kts | 190° |
| 2026-05-04 22:17 | -25.83961 | 176.41176 | 41178 ft | 457 kts | 190° |
| 2026-05-04 22:18 | -25.90252 | 176.40369 | 41184 ft | 457 kts | 190° |
| 2026-05-04 22:18 | -25.96590 | 176.39555 | 41184 ft | 459 kts | 190° |
| 2026-05-04 22:19 | -26.02922 | 176.38740 | 41184 ft | 460 kts | 190° |
| 2026-05-04 22:19 | -26.09280 | 176.37922 | 41191 ft | 460 kts | 190° |
| 2026-05-04 22:20 | -26.15662 | 176.37100 | 41193 ft | 460 kts | 190° |
| 2026-05-04 22:20 | -26.21988 | 176.36284 | 41215 ft | 460 kts | 190° |
| 2026-05-04 22:21 | -26.28369 | 176.35459 | 41195 ft | 463 kts | 190° |
| 2026-05-04 22:21 | -26.34746 | 176.34634 | 41197 ft | 463 kts | 190° |
| 2026-05-04 22:22 | -26.41170 | 176.33804 | 41197 ft | 463 kts | 190° |
| 2026-05-04 22:22 | -26.47586 | 176.32973 | 41203 ft | 463 kts | 190° |
| 2026-05-04 22:23 | -26.53955 | 176.32147 | 41215 ft | 464 kts | 189° |
| 2026-05-04 22:23 | -26.60394 | 176.31310 | 41205 ft | 466 kts | 189° |
| 2026-05-04 22:24 | -26.66842 | 176.30472 | 41204 ft | 466 kts | 189° |
| 2026-05-04 22:24 | -26.73263 | 176.29636 | 41208 ft | 466 kts | 189° |
| 2026-05-04 22:25 | -26.79718 | 176.28796 | 41211 ft | 466 kts | 189° |
| 2026-05-04 22:25 | -26.86172 | 176.27953 | 41216 ft | 467 kts | 189° |
| 2026-05-04 22:26 | -26.92618 | 176.27111 | 41217 ft | 468 kts | 189° |
| 2026-05-04 22:26 | -26.99103 | 176.26263 | 41217 ft | 468 kts | 189° |
| 2026-05-04 22:27 | -27.05584 | 176.25415 | 41219 ft | 468 kts | 189° |
| 2026-05-04 22:27 | -27.12025 | 176.24571 | 41221 ft | 468 kts | 189° |
| 2026-05-04 22:28 | -27.18525 | 176.23718 | 41226 ft | 471 kts | 189° |
| 2026-05-04 22:28 | -27.25041 | 176.22861 | 41227 ft | 472 kts | 189° |
| 2026-05-04 22:29 | -27.31529 | 176.22009 | 41234 ft | 472 kts | 189° |
| 2026-05-04 22:29 | -27.38056 | 176.21150 | 41234 ft | 472 kts | 189° |
| 2026-05-04 22:30 | -27.44598 | 176.20287 | 41243 ft | 472 kts | 189° |
| 2026-05-04 22:30 | -27.51100 | 176.19429 | 41236 ft | 473 kts | 189° |
| 2026-05-04 22:31 | -27.57651 | 176.18564 | 41237 ft | 472 kts | 189° |
| 2026-05-04 22:31 | -27.64124 | 176.17707 | 41241 ft | 470 kts | 189° |
| 2026-05-04 22:32 | -27.70624 | 176.16847 | 41248 ft | 469 kts | 189° |
| 2026-05-04 22:32 | -27.77121 | 176.15985 | 41247 ft | 469 kts | 189° |
| 2026-05-04 22:33 | -27.83582 | 176.15130 | 41249 ft | 469 kts | 189° |
| 2026-05-04 22:33 | -27.90043 | 176.14270 | 41250 ft | 469 kts | 189° |
| 2026-05-04 22:34 | -27.96548 | 176.13402 | 41251 ft | 469 kts | 189° |
| 2026-05-04 22:34 | -28.03005 | 176.12541 | 41258 ft | 470 kts | 189° |
| 2026-05-04 22:35 | -28.09528 | 176.11670 | 41253 ft | 472 kts | 189° |
| 2026-05-04 22:35 | -28.16078 | 176.10795 | 41259 ft | 472 kts | 189° |
| 2026-05-04 22:36 | -28.22578 | 176.09926 | 41261 ft | 472 kts | 189° |
| 2026-05-04 22:36 | -28.29121 | 176.09051 | 41266 ft | 472 kts | 189° |
| 2026-05-04 22:37 | -28.35622 | 176.08180 | 41265 ft | 473 kts | 189° |
| 2026-05-04 22:37 | -28.42196 | 176.07297 | 41268 ft | 474 kts | 189° |
| 2026-05-04 22:38 | -28.48718 | 176.06420 | 41267 ft | 474 kts | 189° |
| 2026-05-04 22:38 | -28.55287 | 176.05536 | 41273 ft | 474 kts | 189° |
| 2026-05-04 22:39 | -28.61858 | 176.04651 | 41282 ft | 474 kts | 189° |
| 2026-05-04 22:39 | -28.68429 | 176.03765 | 41278 ft | 476 kts | 189° |
| 2026-05-04 22:40 | -28.74979 | 176.02881 | 41282 ft | 476 kts | 189° |
| 2026-05-04 22:40 | -28.81571 | 176.01990 | 41279 ft | 476 kts | 189° |
| 2026-05-04 22:41 | -28.88156 | 176.01097 | 41281 ft | 476 kts | 189° |
| 2026-05-04 22:41 | -28.94705 | 176.00207 | 41289 ft | 477 kts | 189° |
| 2026-05-04 22:42 | -29.01310 | 175.99310 | 41286 ft | 478 kts | 189° |
| 2026-05-04 22:42 | -29.07920 | 175.98414 | 41293 ft | 478 kts | 189° |
| 2026-05-04 22:43 | -29.14539 | 175.97514 | 41282 ft | 478 kts | 189° |
| 2026-05-04 22:43 | -29.21123 | 175.96615 | 41298 ft | 478 kts | 189° |
| 2026-05-04 22:44 | -29.27756 | 175.95709 | 41288 ft | 480 kts | 189° |
| 2026-05-04 22:44 | -29.34344 | 175.94808 | 41291 ft | 480 kts | 190° |
| 2026-05-04 22:45 | -29.40987 | 175.93899 | 41299 ft | 480 kts | 189° |
| 2026-05-04 22:45 | -29.50950 | 175.92540 | 41317 ft | 480 kts | 190° |
| 2026-05-04 22:46 | -29.57598 | 175.91626 | 41302 ft | 481 kts | 189° |
| 2026-05-04 22:46 | -29.63133 | 175.90863 | 41304 ft | 481 kts | 190° |
| 2026-05-04 22:47 | -29.70878 | 175.89794 | 41309 ft | 481 kts | 189° |
| 2026-05-04 22:47 | -29.76405 | 175.89033 | 41317 ft | 481 kts | 189° |
| 2026-05-04 22:48 | -29.83083 | 175.88112 | 41306 ft | 483 kts | 189° |
| 2026-05-04 22:48 | -29.89758 | 175.87187 | 41313 ft | 483 kts | 189° |
| 2026-05-04 22:49 | -29.96440 | 175.86265 | 41314 ft | 483 kts | 189° |
| 2026-05-04 22:49 | -30.03127 | 175.85340 | 41317 ft | 483 kts | 189° |
| 2026-05-04 22:50 | -30.09770 | 175.84418 | 41317 ft | 484 kts | 189° |
| 2026-05-04 22:50 | -30.16480 | 175.83484 | 41319 ft | 485 kts | 189° |
| 2026-05-04 22:51 | -30.23197 | 175.82549 | 41324 ft | 485 kts | 189° |
| 2026-05-04 22:51 | -30.29871 | 175.81621 | 41324 ft | 485 kts | 189° |
| 2026-05-04 22:52 | -30.36594 | 175.80684 | 41330 ft | 485 kts | 190° |
| 2026-05-04 22:52 | -30.43259 | 175.79747 | 41327 ft | 483 kts | 189° |
| 2026-05-04 22:53 | -30.49934 | 175.78815 | 41330 ft | 482 kts | 189° |
| 2026-05-04 22:53 | -30.56615 | 175.77883 | 41333 ft | 482 kts | 189° |
| 2026-05-04 22:54 | -30.63244 | 175.76955 | 41332 ft | 482 kts | 189° |
| 2026-05-04 22:54 | -30.69914 | 175.76018 | 41336 ft | 482 kts | 189° |
| 2026-05-04 22:55 | -30.76578 | 175.75080 | 41336 ft | 482 kts | 189° |
| 2026-05-04 22:55 | -30.83246 | 175.74143 | 41335 ft | 482 kts | 189° |
| 2026-05-04 22:56 | -30.89917 | 175.73201 | 41353 ft | 482 kts | 189° |
| 2026-05-04 22:56 | -30.96548 | 175.72268 | 41340 ft | 484 kts | 189° |
| 2026-05-04 22:57 | -31.03244 | 175.71315 | 41347 ft | 484 kts | 189° |
| 2026-05-04 22:57 | -31.09931 | 175.70362 | 41346 ft | 484 kts | 189° |
| 2026-05-04 22:58 | -31.16580 | 175.69411 | 41346 ft | 484 kts | 189° |
| 2026-05-04 22:58 | -31.23284 | 175.68454 | 41352 ft | 484 kts | 189° |
| 2026-05-04 22:59 | -31.29993 | 175.67497 | 41352 ft | 485 kts | 189° |
| 2026-05-04 22:59 | -31.36653 | 175.66549 | 41357 ft | 485 kts | 189° |
| 2026-05-04 23:00 | -31.43359 | 175.65588 | 41358 ft | 485 kts | 189° |
| 2026-05-04 23:00 | -31.50077 | 175.64623 | 41363 ft | 485 kts | 189° |
| 2026-05-04 23:01 | -31.56744 | 175.63663 | 41366 ft | 485 kts | 189° |
| 2026-05-04 23:01 | -31.63472 | 175.62696 | 41365 ft | 485 kts | 189° |
| 2026-05-04 23:02 | -31.70181 | 175.61735 | 41371 ft | 485 kts | 189° |
| 2026-05-04 23:02 | -31.76886 | 175.60771 | 41373 ft | 485 kts | 189° |
| 2026-05-04 23:03 | -31.83566 | 175.59808 | 41373 ft | 486 kts | 189° |
| 2026-05-04 23:03 | -31.90290 | 175.58834 | 41379 ft | 486 kts | 189° |
| 2026-05-04 23:04 | -31.97012 | 175.57858 | 41378 ft | 486 kts | 190° |
| 2026-05-04 23:04 | -32.03686 | 175.56889 | 41383 ft | 486 kts | 189° |
| 2026-05-04 23:05 | -32.10402 | 175.55914 | 41378 ft | 486 kts | 189° |
| 2026-05-04 23:05 | -32.17128 | 175.54938 | 41384 ft | 486 kts | 189° |
| 2026-05-04 23:06 | -32.23860 | 175.53958 | 41387 ft | 486 kts | 189° |
| 2026-05-04 23:06 | -32.30595 | 175.52976 | 41389 ft | 487 kts | 189° |
| 2026-05-04 23:07 | -32.37288 | 175.51997 | 41389 ft | 487 kts | 189° |
| 2026-05-04 23:07 | -32.44037 | 175.51012 | 41390 ft | 487 kts | 189° |
| 2026-05-04 23:08 | -32.50769 | 175.50024 | 41392 ft | 487 kts | 189° |
| 2026-05-04 23:08 | -32.57471 | 175.49039 | 41398 ft | 487 kts | 189° |
| 2026-05-04 23:09 | -32.64187 | 175.48051 | 41393 ft | 488 kts | 189° |
| 2026-05-04 23:09 | -32.70945 | 175.47056 | 41399 ft | 488 kts | 189° |
| 2026-05-04 23:10 | -32.77656 | 175.46069 | 41399 ft | 488 kts | 189° |
| 2026-05-04 23:10 | -32.84423 | 175.45070 | 41404 ft | 488 kts | 189° |
| 2026-05-04 23:11 | -32.91132 | 175.44080 | 41400 ft | 488 kts | 189° |
| 2026-05-04 23:11 | -32.97880 | 175.43080 | 41411 ft | 488 kts | 189° |
| 2026-05-04 23:12 | -33.04645 | 175.42077 | 41409 ft | 488 kts | 189° |
| 2026-05-04 23:12 | -33.11377 | 175.41077 | 41412 ft | 486 kts | 189° |
| 2026-05-04 23:13 | -33.18055 | 175.40083 | 41413 ft | 486 kts | 189° |
| 2026-05-04 23:13 | -33.24775 | 175.39081 | 41415 ft | 486 kts | 189° |
| 2026-05-04 23:14 | -33.31501 | 175.38076 | 41423 ft | 486 kts | 189° |
| 2026-05-04 23:14 | -33.38184 | 175.37078 | 41422 ft | 486 kts | 189° |
| 2026-05-04 23:15 | -33.44900 | 175.36073 | 41422 ft | 486 kts | 189° |
| 2026-05-04 23:15 | -33.51636 | 175.35063 | 41421 ft | 486 kts | 189° |
| 2026-05-04 23:16 | -33.58349 | 175.34054 | 41424 ft | 486 kts | 189° |
| 2026-05-04 23:16 | -33.65031 | 175.33049 | 41425 ft | 486 kts | 189° |
| 2026-05-04 23:17 | -33.71766 | 175.32039 | 41429 ft | 486 kts | 189° |
| 2026-05-04 23:17 | -33.78452 | 175.31048 | 41427 ft | 486 kts | 189° |
| 2026-05-04 23:18 | -33.85181 | 175.30050 | 41433 ft | 486 kts | 189° |
| 2026-05-04 23:18 | -33.91918 | 175.29050 | 41437 ft | 487 kts | 189° |
| 2026-05-04 23:19 | -33.98605 | 175.28055 | 41435 ft | 487 kts | 189° |
| 2026-05-04 23:19 | -34.05336 | 175.27051 | 41436 ft | 487 kts | 189° |
| 2026-05-04 23:20 | -34.12084 | 175.26043 | 41437 ft | 487 kts | 189° |
| 2026-05-04 23:20 | -34.18784 | 175.25041 | 41434 ft | 487 kts | 189° |
| 2026-05-04 23:21 | -34.25533 | 175.24030 | 41443 ft | 488 kts | 189° |
| 2026-05-04 23:21 | -34.32282 | 175.23017 | 41443 ft | 488 kts | 189° |
| 2026-05-04 23:22 | -34.38987 | 175.22009 | 41458 ft | 488 kts | 189° |
| 2026-05-04 23:22 | -34.45732 | 175.20994 | 41445 ft | 488 kts | 189° |
| 2026-05-04 23:23 | -34.52486 | 175.19975 | 41449 ft | 488 kts | 189° |
| 2026-05-04 23:23 | -34.59200 | 175.18961 | 41446 ft | 488 kts | 189° |
| 2026-05-04 23:24 | -34.65950 | 175.17940 | 41459 ft | 488 kts | 189° |
| 2026-05-04 23:24 | -34.72663 | 175.16923 | 41456 ft | 488 kts | 189° |
| 2026-05-04 23:25 | -34.79430 | 175.15896 | 41455 ft | 488 kts | 189° |
| 2026-05-04 23:25 | -34.86141 | 175.14875 | 41462 ft | 488 kts | 189° |
| 2026-05-04 23:26 | -34.92905 | 175.13845 | 41465 ft | 488 kts | 189° |
| 2026-05-04 23:26 | -34.99643 | 175.12817 | 41465 ft | 489 kts | 189° |
| 2026-05-04 23:27 | -35.06363 | 175.11791 | 41463 ft | 489 kts | 189° |
| 2026-05-04 23:27 | -35.13136 | 175.10754 | 41466 ft | 489 kts | 189° |
| 2026-05-04 23:28 | -35.19866 | 175.09722 | 41469 ft | 489 kts | 189° |
| 2026-05-04 23:28 | -35.26639 | 175.08682 | 41471 ft | 489 kts | 189° |
| 2026-05-04 23:29 | -35.33375 | 175.07646 | 41471 ft | 489 kts | 189° |
| 2026-05-04 23:29 | -35.40152 | 175.06602 | 41484 ft | 489 kts | 189° |
| 2026-05-04 23:30 | -35.46890 | 175.05562 | 41479 ft | 490 kts | 189° |
| 2026-05-04 23:30 | -35.53633 | 175.04519 | 41480 ft | 490 kts | 189° |
| 2026-05-04 23:31 | -35.60401 | 175.03470 | 41482 ft | 489 kts | 189° |
| 2026-05-04 23:31 | -35.67163 | 175.02422 | 41487 ft | 488 kts | 189° |
| 2026-05-04 23:32 | -35.73877 | 175.01379 | 41483 ft | 488 kts | 189° |
| 2026-05-04 23:32 | -35.80599 | 175.00333 | 41486 ft | 488 kts | 189° |
| 2026-05-04 23:33 | -35.87353 | 174.99280 | 41489 ft | 488 kts | 189° |
| 2026-05-04 23:33 | -35.94078 | 174.98229 | 41491 ft | 488 kts | 189° |
| 2026-05-04 23:34 | -36.00823 | 174.97174 | 41489 ft | 488 kts | 189° |
| 2026-05-04 23:34 | -36.07576 | 174.96116 | 41490 ft | 488 kts | 189° |
| 2026-05-04 23:35 | -36.13197 | 174.95233 | 41487 ft | 488 kts | 189° |
| 2026-05-04 23:35 | -36.21053 | 174.93998 | 41496 ft | 488 kts | 189° |
| 2026-05-04 23:36 | -36.26674 | 174.93113 | 41492 ft | 488 kts | 189° |
| 2026-05-04 23:36 | -36.33422 | 174.92048 | 41496 ft | 488 kts | 189° |
| 2026-05-04 23:37 | -36.40135 | 174.90987 | 41502 ft | 488 kts | 189° |
| 2026-05-04 23:37 | -36.46902 | 174.89916 | 41498 ft | 489 kts | 189° |
| 2026-05-04 23:38 | -36.53668 | 174.88842 | 41503 ft | 489 kts | 189° |
| 2026-05-04 23:38 | -36.60391 | 174.87774 | 41502 ft | 489 kts | 189° |
| 2026-05-04 23:39 | -36.67112 | 174.86704 | 41508 ft | 489 kts | 189° |
| 2026-05-04 23:39 | -36.73878 | 174.85626 | 41509 ft | 489 kts | 189° |
| 2026-05-04 23:40 | -36.80654 | 174.84543 | 41507 ft | 489 kts | 189° |
| 2026-05-04 23:40 | -36.87377 | 174.83468 | 41505 ft | 489 kts | 189° |
| 2026-05-04 23:41 | -36.94152 | 174.82382 | 41509 ft | 490 kts | 189° |
| 2026-05-04 23:41 | -37.00810 | 174.80875 | 41511 ft | 487 kts | 199° |
| 2026-05-04 23:42 | -37.07146 | 174.77853 | 41508 ft | 485 kts | 204° |
| 2026-05-04 23:42 | -37.13335 | 174.74554 | 41517 ft | 485 kts | 205° |
| 2026-05-04 23:43 | -37.19513 | 174.71200 | 41513 ft | 485 kts | 205° |
| 2026-05-04 23:43 | -37.25701 | 174.67854 | 41510 ft | 485 kts | 205° |
| 2026-05-04 23:44 | -37.31933 | 174.64497 | 41511 ft | 485 kts | 205° |
| 2026-05-04 23:44 | -37.38115 | 174.61165 | 41510 ft | 485 kts | 205° |
| 2026-05-04 23:45 | -37.44335 | 174.57807 | 41510 ft | 485 kts | 205° |
| 2026-05-04 23:45 | -37.50504 | 174.54470 | 41513 ft | 485 kts | 205° |
| 2026-05-04 23:46 | -37.56728 | 174.51103 | 41511 ft | 485 kts | 205° |
| 2026-05-04 23:46 | -37.62902 | 174.47753 | 41515 ft | 485 kts | 205° |
| 2026-05-04 23:47 | -37.69113 | 174.44373 | 41516 ft | 485 kts | 205° |
| 2026-05-04 23:47 | -37.75279 | 174.41014 | 41516 ft | 485 kts | 205° |
| 2026-05-04 23:48 | -37.81490 | 174.37626 | 41516 ft | 485 kts | 205° |
| 2026-05-04 23:48 | -37.87690 | 174.34237 | 41519 ft | 485 kts | 205° |
| 2026-05-04 23:49 | -37.93885 | 174.30845 | 41519 ft | 485 kts | 205° |
| 2026-05-04 23:49 | -38.00044 | 174.27466 | 41517 ft | 484 kts | 205° |
| 2026-05-04 23:50 | -38.06233 | 174.24065 | 41524 ft | 483 kts | 205° |
| 2026-05-04 23:50 | -38.12377 | 174.20683 | 41516 ft | 483 kts | 205° |
| 2026-05-04 23:51 | -38.18570 | 174.17267 | 41514 ft | 483 kts | 205° |
| 2026-05-04 23:51 | -38.24706 | 174.13877 | 41518 ft | 483 kts | 205° |
| 2026-05-04 23:52 | -38.30888 | 174.10454 | 41516 ft | 483 kts | 205° |
| 2026-05-04 23:52 | -38.37039 | 174.07042 | 41517 ft | 484 kts | 205° |
| 2026-05-04 23:53 | -38.43217 | 174.03609 | 41521 ft | 484 kts | 205° |
| 2026-05-04 23:53 | -38.49388 | 174.00173 | 41517 ft | 484 kts | 205° |
| 2026-05-04 23:54 | -38.55559 | 173.96731 | 41519 ft | 483 kts | 205° |
| 2026-05-04 23:54 | -38.61701 | 173.93299 | 41521 ft | 483 kts | 205° |
| 2026-05-04 23:55 | -38.67878 | 173.89841 | 41516 ft | 483 kts | 205° |
| 2026-05-04 23:56 | -38.77092 | 173.84670 | 41522 ft | 482 kts | 205° |
| 2026-05-04 23:56 | -38.83260 | 173.81200 | 41521 ft | 482 kts | 205° |
| 2026-05-04 23:57 | -38.89378 | 173.77752 | 41523 ft | 482 kts | 205° |
| 2026-05-04 23:57 | -38.95542 | 173.74272 | 41524 ft | 482 kts | 205° |
| 2026-05-04 23:58 | -39.01650 | 173.70817 | 41523 ft | 482 kts | 205° |
| 2026-05-04 23:58 | -39.07806 | 173.67331 | 41526 ft | 482 kts | 205° |
| 2026-05-04 23:59 | -39.13960 | 173.63833 | 41527 ft | 482 kts | 205° |
| 2026-05-04 23:59 | -39.20108 | 173.60330 | 41527 ft | 482 kts | 205° |
| 2026-05-05 00:00 | -39.26209 | 173.56849 | 41526 ft | 482 kts | 205° |
| 2026-05-05 00:00 | -39.32367 | 173.53330 | 41526 ft | 482 kts | 205° |
| 2026-05-05 00:01 | -39.38454 | 173.49845 | 41527 ft | 481 kts | 205° |
| 2026-05-05 00:01 | -39.44593 | 173.46324 | 41529 ft | 481 kts | 205° |
| 2026-05-05 00:02 | -39.50689 | 173.42820 | 41526 ft | 481 kts | 205° |
| 2026-05-05 00:02 | -39.56832 | 173.39283 | 41527 ft | 481 kts | 205° |
| 2026-05-05 00:03 | -39.62926 | 173.35767 | 41531 ft | 481 kts | 205° |
| 2026-05-05 00:03 | -39.69030 | 173.32238 | 41529 ft | 481 kts | 205° |
| 2026-05-05 00:04 | -39.75166 | 173.28684 | 41529 ft | 481 kts | 205° |
| 2026-05-05 00:04 | -39.81252 | 173.25152 | 41530 ft | 481 kts | 205° |
| 2026-05-05 00:05 | -39.87388 | 173.21584 | 41526 ft | 481 kts | 205° |
| 2026-05-05 00:05 | -39.93470 | 173.18041 | 41527 ft | 481 kts | 205° |
| 2026-05-05 00:06 | -39.99582 | 173.14473 | 41523 ft | 481 kts | 205° |
| 2026-05-05 00:06 | -40.05696 | 173.10896 | 41527 ft | 480 kts | 205° |
| 2026-05-05 00:07 | -40.11758 | 173.07343 | 41523 ft | 480 kts | 205° |
| 2026-05-05 00:07 | -40.17875 | 173.03752 | 41521 ft | 480 kts | 205° |
| 2026-05-05 00:08 | -40.23947 | 173.00179 | 41521 ft | 480 kts | 205° |
| 2026-05-05 00:08 | -40.30048 | 172.96582 | 41522 ft | 479 kts | 205° |
| 2026-05-05 00:09 | -40.36100 | 172.93007 | 41519 ft | 478 kts | 205° |
| 2026-05-05 00:09 | -40.42175 | 172.89411 | 41519 ft | 478 kts | 205° |
| 2026-05-05 00:10 | -40.48210 | 172.85832 | 41515 ft | 478 kts | 205° |
| 2026-05-05 00:10 | -40.54292 | 172.82218 | 41516 ft | 478 kts | 205° |
| 2026-05-05 00:11 | -40.60366 | 172.78601 | 41517 ft | 478 kts | 205° |
| 2026-05-05 00:11 | -40.66416 | 172.74991 | 41516 ft | 478 kts | 205° |
| 2026-05-05 00:12 | -40.72492 | 172.71359 | 41512 ft | 479 kts | 205° |
| 2026-05-05 00:12 | -40.78530 | 172.67741 | 41508 ft | 479 kts | 205° |
| 2026-05-05 00:13 | -40.84623 | 172.64085 | 41508 ft | 479 kts | 205° |
| 2026-05-05 00:13 | -40.90673 | 172.60446 | 41504 ft | 479 kts | 205° |
| 2026-05-05 00:14 | -40.96750 | 172.56784 | 41504 ft | 478 kts | 205° |
| 2026-05-05 00:14 | -41.02770 | 172.53149 | 41502 ft | 478 kts | 205° |
| 2026-05-05 00:15 | -41.08842 | 172.49474 | 41502 ft | 478 kts | 205° |
| 2026-05-05 00:15 | -41.14878 | 172.45814 | 41498 ft | 478 kts | 205° |
| 2026-05-05 00:16 | -41.20942 | 172.42129 | 41492 ft | 479 kts | 205° |
| 2026-05-05 00:16 | -41.26975 | 172.38456 | 41499 ft | 478 kts | 205° |
| 2026-05-05 00:17 | -41.33035 | 172.34759 | 41502 ft | 478 kts | 205° |
| 2026-05-05 00:17 | -41.39084 | 172.31061 | 41501 ft | 478 kts | 205° |
| 2026-05-05 00:18 | -41.45104 | 172.27373 | 41500 ft | 478 kts | 205° |
| 2026-05-05 00:18 | -41.51165 | 172.23653 | 41509 ft | 478 kts | 205° |
| 2026-05-05 00:19 | -41.57188 | 172.19948 | 41509 ft | 478 kts | 206° |
| 2026-05-05 00:19 | -41.63238 | 172.16219 | 41508 ft | 477 kts | 206° |
| 2026-05-05 00:20 | -41.69239 | 172.12512 | 41508 ft | 477 kts | 206° |
| 2026-05-05 00:20 | -41.75298 | 172.08762 | 41514 ft | 477 kts | 206° |
| 2026-05-05 00:21 | -41.81292 | 172.05044 | 41511 ft | 477 kts | 206° |
| 2026-05-05 00:21 | -41.87335 | 172.01288 | 41506 ft | 477 kts | 206° |
| 2026-05-05 00:22 | -41.93335 | 171.97551 | 41504 ft | 477 kts | 206° |
| 2026-05-05 00:22 | -41.99359 | 171.93791 | 41508 ft | 477 kts | 206° |
| 2026-05-05 00:23 | -42.04364 | 171.90662 | 41506 ft | 476 kts | 206° |
| 2026-05-05 00:23 | -42.10384 | 171.86889 | 41506 ft | 476 kts | 206° |
| 2026-05-05 00:24 | -42.16368 | 171.83133 | 41500 ft | 476 kts | 206° |
| 2026-05-05 00:24 | -42.22376 | 171.79353 | 41511 ft | 476 kts | 206° |
| 2026-05-05 00:25 | -42.28386 | 171.75563 | 41510 ft | 476 kts | 206° |
| 2026-05-05 00:25 | -42.34360 | 171.71789 | 41507 ft | 475 kts | 206° |
| 2026-05-05 00:26 | -42.40366 | 171.67985 | 41498 ft | 475 kts | 206° |
| 2026-05-05 00:26 | -42.46321 | 171.64207 | 41517 ft | 475 kts | 206° |
| 2026-05-05 00:27 | -42.52315 | 171.60395 | 41508 ft | 475 kts | 206° |
| 2026-05-05 00:27 | -42.58277 | 171.56596 | 41498 ft | 475 kts | 206° |
| 2026-05-05 00:28 | -42.64271 | 171.52768 | 41497 ft | 475 kts | 206° |
| 2026-05-05 00:28 | -42.70226 | 171.48958 | 41512 ft | 474 kts | 206° |
| 2026-05-05 00:29 | -42.76199 | 171.45128 | 41497 ft | 474 kts | 206° |
| 2026-05-05 00:29 | -42.82183 | 171.41282 | 41488 ft | 474 kts | 206° |
| 2026-05-05 00:30 | -42.88120 | 171.37459 | 41464 ft | 474 kts | 206° |
| 2026-05-05 00:30 | -42.94092 | 171.33605 | 41477 ft | 473 kts | 207° |
| 2026-05-05 00:31 | -43.00023 | 171.29768 | 41461 ft | 473 kts | 207° |
| 2026-05-05 00:31 | -43.05985 | 171.25905 | 41448 ft | 473 kts | 207° |
| 2026-05-05 00:32 | -43.11911 | 171.22055 | 41427 ft | 473 kts | 207° |
| 2026-05-05 00:32 | -43.17864 | 171.18177 | 41428 ft | 472 kts | 207° |
| 2026-05-05 00:33 | -43.23811 | 171.14298 | 41428 ft | 472 kts | 207° |
| 2026-05-05 00:33 | -43.29745 | 171.10416 | 41417 ft | 472 kts | 207° |
| 2026-05-05 00:34 | -43.35650 | 171.06547 | 41391 ft | 472 kts | 207° |
| 2026-05-05 00:34 | -43.41604 | 171.02639 | 41395 ft | 473 kts | 207° |
| 2026-05-05 00:35 | -43.47500 | 170.98750 | 41392 ft | 472 kts | 208° |
| 2026-05-05 00:35 | -43.53022 | 170.93837 | 41378 ft | 471 kts | 218° |
| 2026-05-05 00:36 | -43.58206 | 170.88381 | 41376 ft | 470 kts | 219° |
| 2026-05-05 00:36 | -43.63361 | 170.82794 | 41368 ft | 470 kts | 220° |
| 2026-05-05 00:37 | -43.68487 | 170.77226 | 41368 ft | 470 kts | 219° |
| 2026-05-05 00:37 | -43.73647 | 170.71631 | 41365 ft | 470 kts | 219° |
| 2026-05-05 00:38 | -43.78773 | 170.66069 | 41365 ft | 470 kts | 219° |
| 2026-05-05 00:38 | -43.83942 | 170.60453 | 41372 ft | 470 kts | 219° |
| 2026-05-05 00:39 | -43.89059 | 170.54882 | 41335 ft | 468 kts | 220° |
| 2026-05-05 00:39 | -43.91602 | 170.52109 | 40798 ft | 465 kts | 220° |
| 2026-05-05 00:39 | -43.94156 | 170.49319 | 39910 ft | 470 kts | 220° |
| 2026-05-05 00:39 | -43.96743 | 170.46487 | 39032 ft | 475 kts | 220° |
| 2026-05-05 00:40 | -43.99354 | 170.43627 | 38029 ft | 478 kts | 219° |
| 2026-05-05 00:40 | -44.01970 | 170.40759 | 37065 ft | 481 kts | 219° |
| 2026-05-05 00:40 | -44.04572 | 170.37904 | 36138 ft | 483 kts | 219° |
| 2026-05-05 00:40 | -44.07220 | 170.34995 | 35210 ft | 486 kts | 219° |
| 2026-05-05 00:41 | -44.09873 | 170.32076 | 34259 ft | 488 kts | 219° |
| 2026-05-05 00:41 | -44.12551 | 170.29129 | 33151 ft | 491 kts | 219° |
| 2026-05-05 00:41 | -44.15268 | 170.26219 | 32009 ft | 495 kts | 216° |
| 2026-05-05 00:41 | -44.18156 | 170.23561 | 30904 ft | 499 kts | 213° |
| 2026-05-05 00:42 | -44.21076 | 170.20957 | 30036 ft | 497 kts | 213° |
| 2026-05-05 00:42 | -44.23962 | 170.18354 | 29305 ft | 491 kts | 214° |
| 2026-05-05 00:42 | -44.26801 | 170.15765 | 28620 ft | 484 kts | 214° |
| 2026-05-05 00:42 | -44.29600 | 170.13195 | 27937 ft | 478 kts | 214° |
| 2026-05-05 00:43 | -44.32362 | 170.10647 | 27274 ft | 473 kts | 214° |
| 2026-05-05 00:43 | -44.35097 | 170.08115 | 26609 ft | 468 kts | 215° |
| 2026-05-05 00:43 | -44.37801 | 170.05607 | 25948 ft | 464 kts | 215° |
| 2026-05-05 00:43 | -44.40451 | 170.03144 | 25296 ft | 460 kts | 215° |
| 2026-05-05 00:44 | -44.43107 | 170.00672 | 24633 ft | 456 kts | 215° |
| 2026-05-05 00:44 | -44.45741 | 169.98218 | 23977 ft | 453 kts | 216° |
| 2026-05-05 00:44 | -44.48355 | 169.95779 | 23234 ft | 449 kts | 216° |
| 2026-05-05 00:44 | -44.50914 | 169.93390 | 22572 ft | 443 kts | 216° |
| 2026-05-05 00:45 | -44.53464 | 169.91006 | 21915 ft | 438 kts | 216° |
| 2026-05-05 00:45 | -44.55987 | 169.88646 | 21246 ft | 433 kts | 216° |
| 2026-05-05 00:45 | -44.58489 | 169.86302 | 20579 ft | 429 kts | 216° |
| 2026-05-05 00:45 | -44.60880 | 169.83829 | 19916 ft | 423 kts | 225° |
| 2026-05-05 00:46 | -44.62739 | 169.80706 | 19267 ft | 413 kts | 240° |
| 2026-05-05 00:46 | -44.64187 | 169.77246 | 18607 ft | 409 kts | 244° |
| 2026-05-05 00:46 | -44.65557 | 169.73763 | 17906 ft | 405 kts | 244° |
| 2026-05-05 00:46 | -44.66912 | 169.70314 | 17228 ft | 401 kts | 244° |
| 2026-05-05 00:47 | -44.68245 | 169.66946 | 16581 ft | 397 kts | 244° |
| 2026-05-05 00:47 | -44.69590 | 169.63562 | 15921 ft | 393 kts | 244° |
| 2026-05-05 00:47 | -44.70919 | 169.60213 | 15272 ft | 389 kts | 245° |
| 2026-05-05 00:47 | -44.72227 | 169.56898 | 14488 ft | 388 kts | 245° |
| 2026-05-05 00:48 | -44.73544 | 169.53567 | 13581 ft | 389 kts | 245° |
| 2026-05-05 00:48 | -44.74857 | 169.50260 | 12869 ft | 384 kts | 245° |
| 2026-05-05 00:48 | -44.76146 | 169.47006 | 12224 ft | 376 kts | 246° |
| 2026-05-05 00:48 | -44.77391 | 169.43854 | 11599 ft | 370 kts | 246° |
| 2026-05-05 00:49 | -44.78618 | 169.40752 | 11411 ft | 353 kts | 246° |
| 2026-05-05 00:49 | -44.79781 | 169.37810 | 11300 ft | 334 kts | 247° |
| 2026-05-05 00:49 | -44.80879 | 169.35023 | 11198 ft | 316 kts | 247° |
| 2026-05-05 00:49 | -44.81958 | 169.32460 | 11183 ft | 301 kts | 240° |
| 2026-05-05 00:50 | -44.83278 | 169.30217 | 11037 ft | 292 kts | 235° |
| 2026-05-05 00:50 | -44.84619 | 169.28133 | 10885 ft | 282 kts | 234° |
| 2026-05-05 00:50 | -44.85957 | 169.26110 | 10520 ft | 282 kts | 234° |
| 2026-05-05 00:50 | -44.87290 | 169.24094 | 10124 ft | 279 kts | 235° |
| 2026-05-05 00:51 | -44.88619 | 169.22081 | 9736 ft | 283 kts | 234° |
| 2026-05-05 00:51 | -44.89974 | 169.20031 | 9574 ft | 292 kts | 233° |
| 2026-05-05 00:51 | -44.91346 | 169.17964 | 9133 ft | 282 kts | 233° |
| 2026-05-05 00:51 | -44.92703 | 169.15924 | 8668 ft | 288 kts | 233° |
| 2026-05-05 00:52 | -44.94073 | 169.13849 | 8284 ft | 288 kts | 232° |
| 2026-05-05 00:52 | -44.95435 | 169.11768 | 7861 ft | 285 kts | 234° |
| 2026-05-05 00:52 | -44.96384 | 169.09465 | 7720 ft | 256 kts | 254° |
| 2026-05-05 00:52 | -44.96819 | 169.07193 | 7708 ft | 225 kts | 265° |
| 2026-05-05 00:53 | -44.97097 | 169.05130 | 7696 ft | 204 kts | 263° |
| 2026-05-05 00:53 | -44.97379 | 169.03220 | 7685 ft | 199 kts | 264° |
| 2026-05-05 00:53 | -44.97666 | 169.01319 | 7513 ft | 196 kts | 263° |
| 2026-05-05 00:53 | -44.97956 | 168.99434 | 7128 ft | 197 kts | 263° |
| 2026-05-05 00:54 | -44.98256 | 168.97535 | 6806 ft | 198 kts | 262° |
| 2026-05-05 00:54 | -44.98552 | 168.95635 | 6492 ft | 198 kts | 262° |
| 2026-05-05 00:54 | -44.98846 | 168.93743 | 6190 ft | 196 kts | 262° |
| 2026-05-05 00:54 | -44.99135 | 168.91878 | 5768 ft | 193 kts | 261° |
| 2026-05-05 00:55 | -44.99424 | 168.90015 | 5297 ft | 197 kts | 262° |
| 2026-05-05 00:55 | -44.99725 | 168.88083 | 4673 ft | 202 kts | 259° |
| 2026-05-05 00:55 | -45.00029 | 168.86141 | 3909 ft | 203 kts | 259° |
| 2026-05-05 00:55 | -45.00330 | 168.84215 | 3147 ft | 203 kts | 258° |
| 2026-05-05 00:56 | -45.00632 | 168.82269 | 2488 ft | 203 kts | 258° |
| 2026-05-05 00:56 | -45.00936 | 168.80348 | 1895 ft | 197 kts | 259° |
| 2026-05-05 00:56 | -45.01210 | 168.78537 | 1600 ft | 175 kts | 259° |
| 2026-05-05 00:56 | -45.01465 | 168.76938 | 1422 ft | 160 kts | 258° |
| 2026-05-05 00:57 | -45.01707 | 168.75429 | 1233 ft | 157 kts | 259° |
| 2026-05-05 00:57 | -45.01956 | 168.74103 | 1180 ft | 117 kts | 262° |
| 2026-05-05 00:57 | -45.02027 | 168.73420 | 1168 ft | 28 kts | 247° |
| 2026-05-05 00:57 | -45.02032 | 168.73404 | 1169 ft | 24 kts | 247° |